sensor_id;sensor_type;location;lat;lon;timestamp;temperature;humidity
77467;DHT22;66564;42.482;25.548;2023-02-20T00:00:37;12.90;46.13
77467;DHT22;66564;42.482;25.548;2023-02-20T00:04:01;13.10;45.53
77467;DHT22;66564;42.482;25.548;2023-02-20T00:07:27;13.01;46.25
77467;DHT22;66564;42.482;25.548;2023-02-20T00:10:52;13.08;46.21
77467;DHT22;66564;42.482;25.548;2023-02-20T00:14:17;13.06;45.70
77467;DHT22;66564;42.482;25.548;2023-02-20T00:17:42;12.97;46.27
77467;DHT22;66564;42.482;25.548;2023-02-20T00:21:08;13.03;45.63
77467;DHT22;66564;42.482;25.548;2023-02-20T00:24:33;12.91;46.17
77467;DHT22;66564;42.482;25.548;2023-02-20T00:27:58;12.96;45.82
77467;DHT22;66564;42.482;25.548;2023-02-20T00:31:23;12.97;45.85
77467;DHT22;66564;42.482;25.548;2023-02-20T00:34:49;12.91;45.71
77467;DHT22;66564;42.482;25.548;2023-02-20T00:38:14;13.00;44.89
77467;DHT22;66564;42.482;25.548;2023-02-20T00:41:39;13.00;44.87
77467;DHT22;66564;42.482;25.548;2023-02-20T00:45:04;13.00;44.47
77467;DHT22;66564;42.482;25.548;2023-02-20T00:48:30;12.98;44.05
77467;DHT22;66564;42.482;25.548;2023-02-20T00:51:55;12.98;44.90
77467;DHT22;66564;42.482;25.548;2023-02-20T00:55:20;12.91;43.71
77467;DHT22;66564;42.482;25.548;2023-02-20T00:58:45;12.60;44.74
77467;DHT22;66564;42.482;25.548;2023-02-20T01:02:10;12.72;43.92
77467;DHT22;66564;42.482;25.548;2023-02-20T01:05:36;12.33;45.77
77467;DHT22;66564;42.482;25.548;2023-02-20T01:09:01;12.16;46.09
77467;DHT22;66564;42.482;25.548;2023-02-20T01:12:06;12.40;45.19
77467;DHT22;66564;42.482;25.548;2023-02-20T01:14:52;12.54;45.05
77467;DHT22;66564;42.482;25.548;2023-02-20T01:18:17;12.50;45.19
77467;DHT22;66564;42.482;25.548;2023-02-20T01:21:42;12.53;45.15
77467;DHT22;66564;42.482;25.548;2023-02-20T01:25:07;12.59;44.93
77467;DHT22;66564;42.482;25.548;2023-02-20T01:28:35;12.57;44.70
77467;DHT22;66564;42.482;25.548;2023-02-20T01:32:00;12.57;44.29
77467;DHT22;66564;42.482;25.548;2023-02-20T01:35:26;12.37;44.96
77467;DHT22;66564;42.482;25.548;2023-02-20T01:38:50;12.54;44.39
77467;DHT22;66564;42.482;25.548;2023-02-20T01:42:22;12.52;44.34
77467;DHT22;66564;42.482;25.548;2023-02-20T01:45:47;12.36;45.16
77467;DHT22;66564;42.482;25.548;2023-02-20T01:49:20;12.22;45.80
77467;DHT22;66564;42.482;25.548;2023-02-20T01:52:27;12.25;45.21
77467;DHT22;66564;42.482;25.548;2023-02-20T01:55:53;12.29;44.93
77467;DHT22;66564;42.482;25.548;2023-02-20T01:59:17;12.32;44.36
77467;DHT22;66564;42.482;25.548;2023-02-20T02:02:43;12.37;43.91
77467;DHT22;66564;42.482;25.548;2023-02-20T02:06:08;12.16;44.85
77467;DHT22;66564;42.482;25.548;2023-02-20T02:09:40;12.16;44.97
77467;DHT22;66564;42.482;25.548;2023-02-20T02:13:09;12.15;45.38
77467;DHT22;66564;42.482;25.548;2023-02-20T02:16:27;12.30;44.45
77467;DHT22;66564;42.482;25.548;2023-02-20T02:25:56;12.16;45.14
77467;DHT22;66564;42.482;25.548;2023-02-20T02:44:56;11.67;46.73
77467;DHT22;66564;42.482;25.548;2023-02-20T02:48:15;11.85;45.65
77467;DHT22;66564;42.482;25.548;2023-02-20T02:51:40;11.83;44.65
77467;DHT22;66564;42.482;25.548;2023-02-20T02:55:06;11.79;44.45
77467;DHT22;66564;42.482;25.548;2023-02-20T02:58:11;11.52;45.72
77467;DHT22;66564;42.482;25.548;2023-02-20T03:00:39;11.39;46.72
77467;DHT22;66564;42.482;25.548;2023-02-20T03:04:04;11.62;45.79
77467;DHT22;66564;42.482;25.548;2023-02-20T03:07:29;11.69;45.84
77467;DHT22;66564;42.482;25.548;2023-02-20T03:10:54;11.74;45.61
77467;DHT22;66564;42.482;25.548;2023-02-20T03:14:33;11.77;45.35
77467;DHT22;66564;42.482;25.548;2023-02-20T03:17:59;11.85;44.62
77467;DHT22;66564;42.482;25.548;2023-02-20T03:21:22;11.86;44.79
77467;DHT22;66564;42.482;25.548;2023-02-20T03:24:49;11.89;44.49
77467;DHT22;66564;42.482;25.548;2023-02-20T03:28:07;11.85;44.49
77467;DHT22;66564;42.482;25.548;2023-02-20T03:31:38;11.96;44.20
77467;DHT22;66564;42.482;25.548;2023-02-20T03:35:01;11.81;44.41
77467;DHT22;66564;42.482;25.548;2023-02-20T03:38:25;12.00;44.03
77467;DHT22;66564;42.482;25.548;2023-02-20T03:41:49;12.03;43.84
77467;DHT22;66564;42.482;25.548;2023-02-20T03:45:13;12.09;43.91
77467;DHT22;66564;42.482;25.548;2023-02-20T03:48:40;12.09;43.69
77467;DHT22;66564;42.482;25.548;2023-02-20T03:52:04;12.05;43.74
77467;DHT22;66564;42.482;25.548;2023-02-20T03:55:29;12.10;43.16
77467;DHT22;66564;42.482;25.548;2023-02-20T03:58:57;12.08;43.38
77467;DHT22;66564;42.482;25.548;2023-02-20T04:05:56;12.00;42.73
77467;DHT22;66564;42.482;25.548;2023-02-20T04:09:06;11.99;42.95
77467;DHT22;66564;42.482;25.548;2023-02-20T04:11:59;12.03;41.78
77467;DHT22;66564;42.482;25.548;2023-02-20T04:15:23;11.85;43.54
77467;DHT22;66564;42.482;25.548;2023-02-20T04:18:49;11.83;43.32
77467;DHT22;66564;42.482;25.548;2023-02-20T04:22:16;11.31;44.16
77467;DHT22;66564;42.482;25.548;2023-02-20T04:28:37;11.38;45.33
77467;DHT22;66564;42.482;25.548;2023-02-20T04:32:02;11.06;46.27
77467;DHT22;66564;42.482;25.548;2023-02-20T04:35:27;10.97;46.33
77467;DHT22;66564;42.482;25.548;2023-02-20T04:38:52;10.99;46.74
77467;DHT22;66564;42.482;25.548;2023-02-20T04:42:18;10.66;48.25
77467;DHT22;66564;42.482;25.548;2023-02-20T04:45:43;10.73;48.33
77467;DHT22;66564;42.482;25.548;2023-02-20T04:49:08;10.69;48.26
77467;DHT22;66564;42.482;25.548;2023-02-20T04:52:33;10.81;47.62
77467;DHT22;66564;42.482;25.548;2023-02-20T04:55:59;10.84;47.93
77467;DHT22;66564;42.482;25.548;2023-02-20T04:59:04;10.90;47.12
77467;DHT22;66564;42.482;25.548;2023-02-20T05:01:30;10.93;46.91
77467;DHT22;66564;42.482;25.548;2023-02-20T05:03:56;10.83;46.95
77467;DHT22;66564;42.482;25.548;2023-02-20T05:06:22;10.93;46.01
77467;DHT22;66564;42.482;25.548;2023-02-20T05:08:47;10.94;45.32
77467;DHT22;66564;42.482;25.548;2023-02-20T05:11:13;10.93;45.09
77467;DHT22;66564;42.482;25.548;2023-02-20T05:13:39;10.96;44.19
77467;DHT22;66564;42.482;25.548;2023-02-20T05:16:05;11.01;44.11
77467;DHT22;66564;42.482;25.548;2023-02-20T05:18:31;11.07;44.13
77467;DHT22;66564;42.482;25.548;2023-02-20T05:20:57;11.18;43.92
77467;DHT22;66564;42.482;25.548;2023-02-20T05:23:41;11.20;42.99
77467;DHT22;66564;42.482;25.548;2023-02-20T05:26:09;11.21;43.86
77467;DHT22;66564;42.482;25.548;2023-02-20T05:28:35;11.24;43.90
77467;DHT22;66564;42.482;25.548;2023-02-20T05:31:00;11.34;42.87
77467;DHT22;66564;42.482;25.548;2023-02-20T05:33:26;11.39;42.44
77467;DHT22;66564;42.482;25.548;2023-02-20T05:35:51;11.50;42.39
77467;DHT22;66564;42.482;25.548;2023-02-20T05:38:17;11.37;42.98
77467;DHT22;66564;42.482;25.548;2023-02-20T05:40:43;11.54;42.07
77467;DHT22;66564;42.482;25.548;2023-02-20T05:43:09;11.75;40.96
77467;DHT22;66564;42.482;25.548;2023-02-20T05:45:34;11.77;40.85
77467;DHT22;66564;42.482;25.548;2023-02-20T05:48:00;11.89;40.73
77467;DHT22;66564;42.482;25.548;2023-02-20T05:50:28;12.12;39.11
77467;DHT22;66564;42.482;25.548;2023-02-20T05:52:53;12.29;37.87
77467;DHT22;66564;42.482;25.548;2023-02-20T05:55:19;12.34;37.82
77467;DHT22;66564;42.482;25.548;2023-02-20T05:57:44;12.61;36.99
77467;DHT22;66564;42.482;25.548;2023-02-20T06:00:10;12.79;36.29
77467;DHT22;66564;42.482;25.548;2023-02-20T06:02:36;12.93;36.43
77467;DHT22;66564;42.482;25.548;2023-02-20T06:05:02;13.00;36.55
77467;DHT22;66564;42.482;25.548;2023-02-20T06:07:30;13.15;35.92
77467;DHT22;66564;42.482;25.548;2023-02-20T06:09:55;13.28;35.47
77467;DHT22;66564;42.482;25.548;2023-02-20T06:12:21;13.35;36.06
77467;DHT22;66564;42.482;25.548;2023-02-20T06:14:46;13.47;36.36
77467;DHT22;66564;42.482;25.548;2023-02-20T06:17:12;13.58;35.62
77467;DHT22;66564;42.482;25.548;2023-02-20T06:19:40;13.63;36.07
77467;DHT22;66564;42.482;25.548;2023-02-20T06:22:06;13.65;36.26
77467;DHT22;66564;42.482;25.548;2023-02-20T06:24:31;13.81;35.01
77467;DHT22;66564;42.482;25.548;2023-02-20T06:26:57;13.92;33.81
77467;DHT22;66564;42.482;25.548;2023-02-20T06:29:22;13.96;33.88
77467;DHT22;66564;42.482;25.548;2023-02-20T06:31:48;13.95;34.61
77467;DHT22;66564;42.482;25.548;2023-02-20T06:34:15;14.26;33.91
77467;DHT22;66564;42.482;25.548;2023-02-20T06:36:41;14.44;33.32
77467;DHT22;66564;42.482;25.548;2023-02-20T06:39:08;14.66;32.26
77467;DHT22;66564;42.482;25.548;2023-02-20T06:41:34;14.76;30.92
77467;DHT22;66564;42.482;25.548;2023-02-20T06:43:59;14.90;30.81
77467;DHT22;66564;42.482;25.548;2023-02-20T06:46:25;15.34;29.18
77467;DHT22;66564;42.482;25.548;2023-02-20T06:48:54;15.63;28.87
77467;DHT22;66564;42.482;25.548;2023-02-20T06:51:40;15.93;28.85
77467;DHT22;66564;42.482;25.548;2023-02-20T06:54:45;16.24;29.04
77467;DHT22;66564;42.482;25.548;2023-02-20T06:57:10;16.37;28.29
77467;DHT22;66564;42.482;25.548;2023-02-20T06:59:36;16.63;28.78
77467;DHT22;66564;42.482;25.548;2023-02-20T07:02:12;16.82;28.80
77467;DHT22;66564;42.482;25.548;2023-02-20T07:04:38;16.67;29.37
77467;DHT22;66564;42.482;25.548;2023-02-20T07:07:23;16.95;28.46
77467;DHT22;66564;42.482;25.548;2023-02-20T07:10:28;16.70;28.62
77467;DHT22;66564;42.482;25.548;2023-02-20T07:12:54;16.96;27.88
77467;DHT22;66564;42.482;25.548;2023-02-20T07:15:39;17.21;25.80
77467;DHT22;66564;42.482;25.548;2023-02-20T07:18:41;17.15;26.90
77467;DHT22;66564;42.482;25.548;2023-02-20T07:22:09;17.35;26.09
77467;DHT22;66564;42.482;25.548;2023-02-20T07:25:38;17.76;25.87
77467;DHT22;66564;42.482;25.548;2023-02-20T07:29:04;17.87;25.43
77467;DHT22;66564;42.482;25.548;2023-02-20T07:32:28;17.91;25.63
77467;DHT22;66564;42.482;25.548;2023-02-20T07:36:03;18.09;24.75
77467;DHT22;66564;42.482;25.548;2023-02-20T07:39:28;18.34;24.09
77467;DHT22;66564;42.482;25.548;2023-02-20T07:42:21;17.99;24.09
77467;DHT22;66564;42.482;25.548;2023-02-20T07:45:49;18.48;23.91
77467;DHT22;66564;42.482;25.548;2023-02-20T07:49:15;18.30;23.35
77467;DHT22;66564;42.482;25.548;2023-02-20T07:52:40;18.64;23.74
77467;DHT22;66564;42.482;25.548;2023-02-20T07:56:05;18.18;24.14
77467;DHT22;66564;42.482;25.548;2023-02-20T07:59:30;18.06;22.44
77467;DHT22;66564;42.482;25.548;2023-02-20T08:02:56;17.99;22.92
77467;DHT22;66564;42.482;25.548;2023-02-20T08:06:21;17.69;23.18
77467;DHT22;66564;42.482;25.548;2023-02-20T08:09:46;17.63;22.88
77467;DHT22;66564;42.482;25.548;2023-02-20T08:13:11;17.66;24.22
77467;DHT22;66564;42.482;25.548;2023-02-20T08:16:37;17.83;23.64
77467;DHT22;66564;42.482;25.548;2023-02-20T08:20:02;17.97;24.11
77467;DHT22;66564;42.482;25.548;2023-02-20T08:23:36;17.69;24.56
77467;DHT22;66564;42.482;25.548;2023-02-20T08:27:04;17.86;23.60
77467;DHT22;66564;42.482;25.548;2023-02-20T08:30:30;17.90;24.16
77467;DHT22;66564;42.482;25.548;2023-02-20T08:33:55;17.66;25.04
77467;DHT22;66564;42.482;25.548;2023-02-20T08:37:20;17.80;24.08
77467;DHT22;66564;42.482;25.548;2023-02-20T08:40:46;17.56;24.49
77467;DHT22;66564;42.482;25.548;2023-02-20T08:44:11;17.82;24.91
77467;DHT22;66564;42.482;25.548;2023-02-20T08:47:39;18.21;25.10
77467;DHT22;66564;42.482;25.548;2023-02-20T08:50:44;18.47;22.70
77467;DHT22;66564;42.482;25.548;2023-02-20T08:53:12;18.47;22.98
77467;DHT22;66564;42.482;25.548;2023-02-20T08:55:37;18.67;22.75
77467;DHT22;66564;42.482;25.548;2023-02-20T08:58:03;18.97;22.10
77467;DHT22;66564;42.482;25.548;2023-02-20T09:00:28;19.35;23.58
77467;DHT22;66564;42.482;25.548;2023-02-20T09:02:54;19.52;21.36
77467;DHT22;66564;42.482;25.548;2023-02-20T09:05:19;19.70;21.10
77467;DHT22;66564;42.482;25.548;2023-02-20T09:07:45;19.67;21.37
77467;DHT22;66564;42.482;25.548;2023-02-20T09:10:10;19.67;21.93
77467;DHT22;66564;42.482;25.548;2023-02-20T09:12:38;19.69;21.47
77467;DHT22;66564;42.482;25.548;2023-02-20T09:15:07;18.75;21.10
77467;DHT22;66564;42.482;25.548;2023-02-20T09:17:53;19.15;21.26
77467;DHT22;66564;42.482;25.548;2023-02-20T09:21:18;19.02;21.85
77467;DHT22;66564;42.482;25.548;2023-02-20T09:24:45;18.89;21.36
77467;DHT22;66564;42.482;25.548;2023-02-20T09:28:09;18.63;22.74
77467;DHT22;66564;42.482;25.548;2023-02-20T09:31:34;18.53;22.43
77467;DHT22;66564;42.482;25.548;2023-02-20T09:34:59;18.27;22.77
77467;DHT22;66564;42.482;25.548;2023-02-20T09:38:24;18.33;22.28
77467;DHT22;66564;42.482;25.548;2023-02-20T09:44:48;18.03;22.83
77467;DHT22;66564;42.482;25.548;2023-02-20T09:50:09;17.83;22.05
77467;DHT22;66564;42.482;25.548;2023-02-20T09:52:39;17.78;22.82
77467;DHT22;66564;42.482;25.548;2023-02-20T09:55:12;17.91;22.90
77467;DHT22;66564;42.482;25.548;2023-02-20T09:57:58;17.89;22.44
77467;DHT22;66564;42.482;25.548;2023-02-20T10:01:04;17.91;23.84
77467;DHT22;66564;42.482;25.548;2023-02-20T10:06:38;18.26;21.63
77467;DHT22;66564;42.482;25.548;2023-02-20T10:09:05;18.43;21.40
77467;DHT22;66564;42.482;25.548;2023-02-20T10:21:05;18.50;22.23
77467;DHT22;66564;42.482;25.548;2023-02-20T10:23:47;18.68;22.12
77467;DHT22;66564;42.482;25.548;2023-02-20T10:26:25;18.89;21.19
77467;DHT22;66564;42.482;25.548;2023-02-20T10:28:51;18.69;21.14
77467;DHT22;66564;42.482;25.548;2023-02-20T10:31:40;18.78;20.39
77467;DHT22;66564;42.482;25.548;2023-02-20T10:34:17;18.84;21.26
77467;DHT22;66564;42.482;25.548;2023-02-20T10:36:50;19.11;21.33
77467;DHT22;66564;42.482;25.548;2023-02-20T10:39:20;19.19;21.31
77467;DHT22;66564;42.482;25.548;2023-02-20T10:44:46;19.32;19.34
77467;DHT22;66564;42.482;25.548;2023-02-20T10:47:19;19.28;19.25
77467;DHT22;66564;42.482;25.548;2023-02-20T10:50:07;19.20;20.40
77467;DHT22;66564;42.482;25.548;2023-02-20T10:53:08;19.33;21.07
77467;DHT22;66564;42.482;25.548;2023-02-20T11:00:53;19.26;19.09
77467;DHT22;66564;42.482;25.548;2023-02-20T11:06:13;18.98;21.04
77467;DHT22;66564;42.482;25.548;2023-02-20T11:08:40;19.04;19.81
77467;DHT22;66564;42.482;25.548;2023-02-20T11:11:36;18.95;20.19
77467;DHT22;66564;42.482;25.548;2023-02-20T11:14:23;19.40;21.37
77467;DHT22;66564;42.482;25.548;2023-02-20T11:16:57;19.79;21.65
77467;DHT22;66564;42.482;25.548;2023-02-20T11:19:35;20.09;19.40
77467;DHT22;66564;42.482;25.548;2023-02-20T11:22:04;20.09;18.57
77467;DHT22;66564;42.482;25.548;2023-02-20T11:24:32;20.18;18.26
77467;DHT22;66564;42.482;25.548;2023-02-20T11:27:19;20.40;17.52
77467;DHT22;66564;42.482;25.548;2023-02-20T11:29:51;20.18;18.53
77467;DHT22;66564;42.482;25.548;2023-02-20T11:32:35;20.55;19.29
77467;DHT22;66564;42.482;25.548;2023-02-20T11:37:47;20.49;18.83
77467;DHT22;66564;42.482;25.548;2023-02-20T11:40:21;20.68;18.02
77467;DHT22;66564;42.482;25.548;2023-02-20T11:42:48;20.61;18.99
77467;DHT22;66564;42.482;25.548;2023-02-20T11:47:40;20.82;18.49
77467;DHT22;66564;42.482;25.548;2023-02-20T11:50:16;20.85;16.81
77467;DHT22;66564;42.482;25.548;2023-02-20T11:55:25;20.49;17.07
77467;DHT22;66564;42.482;25.548;2023-02-20T11:57:54;20.31;17.19
77467;DHT22;66564;42.482;25.548;2023-02-20T12:00:46;20.20;18.52
77467;DHT22;66564;42.482;25.548;2023-02-20T12:04:17;20.28;18.15
77467;DHT22;66564;42.482;25.548;2023-02-20T12:10:51;20.01;18.84
77467;DHT22;66564;42.482;25.548;2023-02-20T12:13:57;19.76;17.07
77467;DHT22;66564;42.482;25.548;2023-02-20T12:30:00;19.89;17.47
77467;DHT22;66564;42.482;25.548;2023-02-20T12:32:42;19.82;18.36
77467;DHT22;66564;42.482;25.548;2023-02-20T12:46:08;19.46;19.25
77467;DHT22;66564;42.482;25.548;2023-02-20T12:52:03;19.74;18.72
77467;DHT22;66564;42.482;25.548;2023-02-20T12:54:43;19.16;18.51
77467;DHT22;66564;42.482;25.548;2023-02-20T12:57:15;19.48;18.65
77467;DHT22;66564;42.482;25.548;2023-02-20T12:59:59;19.40;17.95
77467;DHT22;66564;42.482;25.548;2023-02-20T13:02:32;19.20;18.75
77467;DHT22;66564;42.482;25.548;2023-02-20T13:05:02;19.36;18.78
77467;DHT22;66564;42.482;25.548;2023-02-20T13:07:41;19.30;19.56
77467;DHT22;66564;42.482;25.548;2023-02-20T13:10:21;19.48;19.24
77467;DHT22;66564;42.482;25.548;2023-02-20T13:12:51;19.59;19.69
77467;DHT22;66564;42.482;25.548;2023-02-20T13:18:33;19.72;19.08
77467;DHT22;66564;42.482;25.548;2023-02-20T13:21:11;19.70;19.05
77467;DHT22;66564;42.482;25.548;2023-02-20T13:23:38;19.82;20.05
77467;DHT22;66564;42.482;25.548;2023-02-20T13:28:52;19.69;19.07
77467;DHT22;66564;42.482;25.548;2023-02-20T13:31:21;19.60;18.20
77467;DHT22;66564;42.482;25.548;2023-02-20T13:36:48;19.59;18.58
77467;DHT22;66564;42.482;25.548;2023-02-20T13:44:39;19.38;18.78
77467;DHT22;66564;42.482;25.548;2023-02-20T13:49:58;19.09;18.05
77467;DHT22;66564;42.482;25.548;2023-02-20T13:52:56;19.08;19.29
77467;DHT22;66564;42.482;25.548;2023-02-20T13:55:40;19.08;18.64
77467;DHT22;66564;42.482;25.548;2023-02-20T13:58:30;18.78;18.78
77467;DHT22;66564;42.482;25.548;2023-02-20T14:02:11;18.55;20.03
77467;DHT22;66564;42.482;25.548;2023-02-20T14:05:28;18.40;18.88
77467;DHT22;66564;42.482;25.548;2023-02-20T14:09:13;18.44;20.31
77467;DHT22;66564;42.482;25.548;2023-02-20T14:12:33;18.34;19.79
77467;DHT22;66564;42.482;25.548;2023-02-20T14:15:51;18.23;19.52
77467;DHT22;66564;42.482;25.548;2023-02-20T14:19:20;18.26;19.27
77467;DHT22;66564;42.482;25.548;2023-02-20T14:22:43;18.10;19.58
77467;DHT22;66564;42.482;25.548;2023-02-20T14:26:28;17.90;20.92
77467;DHT22;66564;42.482;25.548;2023-02-20T14:32:53;17.61;21.47
77467;DHT22;66564;42.482;25.548;2023-02-20T14:40:44;17.65;20.66
77467;DHT22;66564;42.482;25.548;2023-02-20T14:43:22;17.32;21.43
77467;DHT22;66564;42.482;25.548;2023-02-20T14:46:05;17.24;21.00
77467;DHT22;66564;42.482;25.548;2023-02-20T14:48:36;17.18;20.85
77467;DHT22;66564;42.482;25.548;2023-02-20T14:51:23;16.98;20.96
77467;DHT22;66564;42.482;25.548;2023-02-20T14:54:00;16.88;22.56
77467;DHT22;66564;42.482;25.548;2023-02-20T14:56:26;16.88;22.44
77467;DHT22;66564;42.482;25.548;2023-02-20T14:58:52;16.82;21.53
77467;DHT22;66564;42.482;25.548;2023-02-20T15:04:00;16.61;21.71
77467;DHT22;66564;42.482;25.548;2023-02-20T15:06:28;16.34;21.85
77467;DHT22;66564;42.482;25.548;2023-02-20T15:08:57;16.31;22.94
77467;DHT22;66564;42.482;25.548;2023-02-20T15:11:28;16.10;21.91
77467;DHT22;66564;42.482;25.548;2023-02-20T15:13:54;15.66;24.05
77467;DHT22;66564;42.482;25.548;2023-02-20T15:16:23;15.73;22.87
77467;DHT22;66564;42.482;25.548;2023-02-20T15:18:49;15.42;23.73
77467;DHT22;66564;42.482;25.548;2023-02-20T15:22:19;15.55;23.55
77467;DHT22;66564;42.482;25.548;2023-02-20T15:25:10;15.34;23.05
77467;DHT22;66564;42.482;25.548;2023-02-20T15:33:39;14.94;24.18
77467;DHT22;66564;42.482;25.548;2023-02-20T15:36:26;14.88;24.97
77467;DHT22;66564;42.482;25.548;2023-02-20T15:39:53;14.73;24.46
77467;DHT22;66564;42.482;25.548;2023-02-20T15:43:18;14.53;24.37
77467;DHT22;66564;42.482;25.548;2023-02-20T15:46:43;14.30;25.72
77467;DHT22;66564;42.482;25.548;2023-02-20T15:50:08;14.20;25.34
77467;DHT22;66564;42.482;25.548;2023-02-20T15:56:04;14.02;24.65
77467;DHT22;66564;42.482;25.548;2023-02-20T15:59:30;13.82;26.55
77467;DHT22;66564;42.482;25.548;2023-02-20T16:02:55;13.71;25.95
77467;DHT22;66564;42.482;25.548;2023-02-20T16:06:21;13.54;25.90
77467;DHT22;66564;42.482;25.548;2023-02-20T16:09:45;13.48;26.41
77467;DHT22;66564;42.482;25.548;2023-02-20T16:13:30;13.24;26.99
77467;DHT22;66564;42.482;25.548;2023-02-20T16:16:54;13.25;27.47
77467;DHT22;66564;42.482;25.548;2023-02-20T16:20:20;13.21;27.10
77467;DHT22;66564;42.482;25.548;2023-02-20T16:23:44;13.08;27.95
77467;DHT22;66564;42.482;25.548;2023-02-20T16:27:20;12.90;27.53
77467;DHT22;66564;42.482;25.548;2023-02-20T16:30:50;12.88;27.99
77467;DHT22;66564;42.482;25.548;2023-02-20T16:34:15;12.86;27.56
77467;DHT22;66564;42.482;25.548;2023-02-20T16:37:40;12.73;28.35
77467;DHT22;66564;42.482;25.548;2023-02-20T16:41:05;12.67;27.49
77467;DHT22;66564;42.482;25.548;2023-02-20T16:44:39;12.66;27.43
77467;DHT22;66564;42.482;25.548;2023-02-20T16:48:02;12.59;28.70
77467;DHT22;66564;42.482;25.548;2023-02-20T16:51:27;12.52;27.69
77467;DHT22;66564;42.482;25.548;2023-02-20T16:54:55;12.46;28.78
77467;DHT22;66564;42.482;25.548;2023-02-20T16:58:20;12.40;28.36
77467;DHT22;66564;42.482;25.548;2023-02-20T17:01:46;12.30;28.33
77467;DHT22;66564;42.482;25.548;2023-02-20T17:04:51;12.34;28.06
77467;DHT22;66564;42.482;25.548;2023-02-20T17:08:17;12.25;29.75
77467;DHT22;66564;42.482;25.548;2023-02-20T17:11:42;12.22;29.87
77467;DHT22;66564;42.482;25.548;2023-02-20T17:15:07;12.23;29.95
77467;DHT22;66564;42.482;25.548;2023-02-20T17:18:32;12.23;32.09
77467;DHT22;66564;42.482;25.548;2023-02-20T17:21:58;12.18;29.39
77467;DHT22;66564;42.482;25.548;2023-02-20T17:25:24;12.20;30.44
77467;DHT22;66564;42.482;25.548;2023-02-20T17:28:48;12.16;28.54
77467;DHT22;66564;42.482;25.548;2023-02-20T17:32:14;12.15;30.78
77467;DHT22;66564;42.482;25.548;2023-02-20T17:35:39;12.08;29.66
77467;DHT22;66564;42.482;25.548;2023-02-20T17:39:00;12.12;30.10
77467;DHT22;66564;42.482;25.548;2023-02-20T17:41:49;12.12;30.44
77467;DHT22;66564;42.482;25.548;2023-02-20T17:45:14;12.03;28.78
77467;DHT22;66564;42.482;25.548;2023-02-20T17:48:41;12.00;29.97
77467;DHT22;66564;42.482;25.548;2023-02-20T17:52:07;11.91;31.61
77467;DHT22;66564;42.482;25.548;2023-02-20T17:55:35;11.91;30.85
77467;DHT22;66564;42.482;25.548;2023-02-20T17:59:03;11.86;30.49
77467;DHT22;66564;42.482;25.548;2023-02-20T18:02:28;11.83;32.51
77467;DHT22;66564;42.482;25.548;2023-02-20T18:05:55;11.83;30.49
77467;DHT22;66564;42.482;25.548;2023-02-20T18:09:20;11.79;30.65
77467;DHT22;66564;42.482;25.548;2023-02-20T18:12:28;11.72;31.61
77467;DHT22;66564;42.482;25.548;2023-02-20T18:14:54;11.69;31.90
77467;DHT22;66564;42.482;25.548;2023-02-20T18:17:21;11.71;31.88
77467;DHT22;66564;42.482;25.548;2023-02-20T18:19:47;11.74;32.35
77467;DHT22;66564;42.482;25.548;2023-02-20T18:22:13;11.78;31.99
77467;DHT22;66564;42.482;25.548;2023-02-20T18:24:43;11.68;32.12
77467;DHT22;66564;42.482;25.548;2023-02-20T18:27:08;11.67;31.94
77467;DHT22;66564;42.482;25.548;2023-02-20T18:29:40;11.62;32.36
77467;DHT22;66564;42.482;25.548;2023-02-20T18:32:07;11.68;32.04
77467;DHT22;66564;42.482;25.548;2023-02-20T18:34:33;11.69;32.54
77467;DHT22;66564;42.482;25.548;2023-02-20T18:36:58;11.71;31.76
77467;DHT22;66564;42.482;25.548;2023-02-20T18:39:24;11.57;31.81
77467;DHT22;66564;42.482;25.548;2023-02-20T18:41:52;11.69;32.33
77467;DHT22;66564;42.482;25.548;2023-02-20T18:44:17;11.64;32.30
77467;DHT22;66564;42.482;25.548;2023-02-20T18:46:44;11.68;32.24
77467;DHT22;66564;42.482;25.548;2023-02-20T18:49:09;11.68;32.03
77467;DHT22;66564;42.482;25.548;2023-02-20T18:51:37;11.62;33.33
77467;DHT22;66564;42.482;25.548;2023-02-20T18:54:04;11.65;32.01
77467;DHT22;66564;42.482;25.548;2023-02-20T18:56:30;11.62;32.72
77467;DHT22;66564;42.482;25.548;2023-02-20T18:58:58;11.54;32.53
77467;DHT22;66564;42.482;25.548;2023-02-20T19:01:26;11.50;33.58
77467;DHT22;66564;42.482;25.548;2023-02-20T19:03:52;11.48;33.51
77467;DHT22;66564;42.482;25.548;2023-02-20T19:06:32;11.38;33.86
77467;DHT22;66564;42.482;25.548;2023-02-20T19:08:58;11.38;33.78
77467;DHT22;66564;42.482;25.548;2023-02-20T19:11:24;11.31;33.30
77467;DHT22;66564;42.482;25.548;2023-02-20T19:13:49;11.27;34.85
77467;DHT22;66564;42.482;25.548;2023-02-20T19:16:15;11.25;34.20
77467;DHT22;66564;42.482;25.548;2023-02-20T19:18:41;11.21;34.38
77467;DHT22;66564;42.482;25.548;2023-02-20T19:21:08;11.23;34.13
77467;DHT22;66564;42.482;25.548;2023-02-20T19:23:36;11.28;35.13
77467;DHT22;66564;42.482;25.548;2023-02-20T19:26:06;11.21;34.41
77467;DHT22;66564;42.482;25.548;2023-02-20T19:28:32;11.23;35.20
77467;DHT22;66564;42.482;25.548;2023-02-20T19:31:00;11.20;34.44
77467;DHT22;66564;42.482;25.548;2023-02-20T19:33:26;11.17;34.48
77467;DHT22;66564;42.482;25.548;2023-02-20T19:35:53;11.24;34.64
77467;DHT22;66564;42.482;25.548;2023-02-20T19:38:18;11.11;34.94
77467;DHT22;66564;42.482;25.548;2023-02-20T19:40:58;11.15;36.70
77467;DHT22;66564;42.482;25.548;2023-02-20T19:43:24;11.20;35.13
77467;DHT22;66564;42.482;25.548;2023-02-20T19:45:51;11.18;34.50
77467;DHT22;66564;42.482;25.548;2023-02-20T19:48:17;11.10;35.52
77467;DHT22;66564;42.482;25.548;2023-02-20T19:50:42;11.03;35.36
77467;DHT22;66564;42.482;25.548;2023-02-20T19:53:08;11.07;35.55
77467;DHT22;66564;42.482;25.548;2023-02-20T19:55:33;11.04;35.40
77467;DHT22;66564;42.482;25.548;2023-02-20T19:57:59;11.01;35.80
77467;DHT22;66564;42.482;25.548;2023-02-20T20:00:27;11.07;36.06
77467;DHT22;66564;42.482;25.548;2023-02-20T20:02:53;11.04;36.57
77467;DHT22;66564;42.482;25.548;2023-02-20T20:05:21;11.07;37.15
77467;DHT22;66564;42.482;25.548;2023-02-20T20:07:47;11.07;37.71
77467;DHT22;66564;42.482;25.548;2023-02-20T20:10:14;11.13;36.75
77467;DHT22;66564;42.482;25.548;2023-02-20T20:12:40;11.11;36.76
77467;DHT22;66564;42.482;25.548;2023-02-20T20:15:20;11.07;36.98
77467;DHT22;66564;42.482;25.548;2023-02-20T20:17:48;11.01;36.85
77467;DHT22;66564;42.482;25.548;2023-02-20T20:20:15;10.93;36.89
77467;DHT22;66564;42.482;25.548;2023-02-20T20:22:41;10.92;37.75